createdAt,value
2018-03-08T00:01:48.911Z,14.37
2018-03-08T00:04:17.867Z,13.73
2018-03-08T00:06:46.741Z,13.50
2018-03-08T00:09:15.615Z,13.13
2018-03-08T00:11:44.468Z,14.00
2018-03-08T00:14:13.337Z,14.40
2018-03-08T00:16:42.209Z,13.90
2018-03-08T00:19:11.057Z,13.73
2018-03-08T00:21:39.929Z,13.70
2018-03-08T00:24:08.764Z,13.37
2018-03-08T00:26:37.620Z,13.67
2018-03-08T00:29:06.487Z,13.80
2018-03-08T00:31:35.559Z,12.80
2018-03-08T00:34:04.430Z,13.27
2018-03-08T00:36:33.305Z,12.33
2018-03-08T00:39:02.149Z,13.07
2018-03-08T00:41:31.005Z,11.30
2018-03-08T00:43:59.873Z,11.40
2018-03-08T00:46:28.736Z,11.10
2018-03-08T00:48:58.157Z,10.30
2018-03-08T00:51:27.620Z,10.30
2018-03-08T00:53:56.492Z,10.07
2018-03-08T00:56:25.336Z,8.50
2018-03-08T00:58:54.320Z,9.23
2018-03-08T01:01:23.191Z,8.90
2018-03-08T01:03:52.068Z,9.60
2018-03-08T01:06:20.937Z,9.50
2018-03-08T01:08:49.775Z,8.37
2018-03-08T01:11:19.267Z,8.17
2018-03-08T01:13:48.139Z,8.33
2018-03-08T01:16:16.975Z,8.33
2018-03-08T01:18:45.835Z,8.80
2018-03-08T01:21:14.723Z,8.60
2018-03-08T01:23:43.587Z,8.07
2018-03-08T01:26:13.167Z,7.43
2018-03-08T01:28:42.035Z,7.67
2018-03-08T01:31:10.878Z,7.13
2018-03-08T01:33:40.073Z,7.30
2018-03-08T01:36:14.828Z,6.60
2018-03-08T01:38:43.797Z,7.07
2018-03-08T01:41:12.683Z,6.73
2018-03-08T01:43:41.578Z,7.17
2018-03-08T01:46:10.421Z,6.43
2018-03-08T01:48:40.171Z,6.27
2018-03-08T01:51:09.025Z,5.97
2018-03-08T01:53:37.875Z,6.63
2018-03-08T01:56:06.743Z,5.87
2018-03-08T01:58:35.619Z,5.67
2018-03-08T02:01:04.495Z,5.73
2018-03-08T02:03:33.387Z,5.87
2018-03-08T02:06:02.240Z,5.57
2018-03-08T02:08:31.090Z,5.67
2018-03-08T02:10:59.966Z,5.23
2018-03-08T02:13:28.823Z,5.40
2018-03-08T02:15:57.692Z,6.43
2018-03-08T02:18:26.621Z,5.23
2018-03-08T02:20:55.474Z,5.40
2018-03-08T02:23:24.371Z,5.23
2018-03-08T02:25:53.292Z,5.13
2018-03-08T02:28:22.136Z,5.00
2018-03-08T02:30:51.546Z,5.07
2018-03-08T02:33:20.414Z,5.70
2018-03-08T02:35:49.269Z,4.90
2018-03-08T02:38:18.111Z,4.63
2018-03-08T02:40:47.493Z,5.50
2018-03-08T02:43:16.360Z,4.63
2018-03-08T02:45:45.203Z,4.87
2018-03-08T02:48:14.074Z,4.37
2018-03-08T02:50:42.940Z,4.50
2018-03-08T02:53:11.782Z,4.77
2018-03-08T02:55:40.644Z,4.90
2018-03-08T02:58:09.487Z,4.53
2018-03-08T03:00:38.400Z,4.77
2018-03-08T03:03:07.297Z,4.63
2018-03-08T03:05:36.132Z,5.53
2018-03-08T03:08:04.995Z,4.90
2018-03-08T03:10:33.873Z,4.47
2018-03-08T03:13:02.723Z,4.93
2018-03-08T03:15:31.569Z,5.07
2018-03-08T03:18:00.429Z,3.47
2018-03-08T03:20:29.346Z,4.67
2018-03-08T03:22:58.226Z,4.37
2018-03-08T03:25:27.080Z,4.40
2018-03-08T03:27:55.955Z,4.60
2018-03-08T03:30:24.850Z,4.10
2018-03-08T03:32:53.670Z,4.20
2018-03-08T03:35:22.512Z,4.10
2018-03-08T03:37:52.343Z,5.10
2018-03-08T03:40:21.219Z,4.13
2018-03-08T03:42:50.315Z,3.67
2018-03-08T03:45:19.144Z,3.13
2018-03-08T03:47:48.024Z,3.23
2018-03-08T03:50:16.863Z,4.27
2018-03-08T03:52:45.704Z,3.77
2018-03-08T03:55:14.629Z,3.67
2018-03-08T03:57:43.467Z,4.20
2018-03-08T04:00:12.307Z,4.00
2018-03-08T04:02:41.158Z,4.20
2018-03-08T04:05:09.996Z,3.87
2018-03-08T04:07:39.059Z,3.97
2018-03-08T04:10:07.925Z,4.03
2018-03-08T04:12:36.762Z,4.00
2018-03-08T04:15:05.912Z,4.33
2018-03-08T04:17:34.784Z,4.07
2018-03-08T04:20:03.658Z,5.13
2018-03-08T04:22:32.518Z,4.37
2018-03-08T04:25:01.381Z,4.50
2018-03-08T04:27:30.254Z,5.03
2018-03-08T04:29:59.112Z,4.87
2018-03-08T04:32:27.970Z,4.30
2018-03-08T04:34:56.835Z,4.77
2018-03-08T04:37:25.739Z,4.10
2018-03-08T04:39:54.634Z,4.53
2018-03-08T04:42:23.472Z,4.93
2018-03-08T04:44:52.370Z,4.67
2018-03-08T04:47:21.272Z,4.57
2018-03-08T04:49:50.455Z,5.10
2018-03-08T04:52:20.150Z,5.00
2018-03-08T04:54:49.002Z,5.17
2018-03-08T04:57:17.854Z,5.00
2018-03-08T04:59:46.716Z,4.77
2018-03-08T05:02:18.362Z,5.80
2018-03-08T05:04:47.219Z,5.40
2018-03-08T05:07:16.078Z,5.93
2018-03-08T05:09:44.978Z,6.10
2018-03-08T05:12:13.828Z,6.47
2018-03-08T05:14:42.667Z,6.30
2018-03-08T05:17:11.532Z,6.23
2018-03-08T05:19:40.365Z,6.57
2018-03-08T05:22:09.208Z,6.77
2018-03-08T05:24:38.402Z,7.10
2018-03-08T05:27:07.246Z,7.63
2018-03-08T05:29:47.486Z,7.40
2018-03-08T05:32:16.352Z,7.20
2018-03-08T05:34:45.206Z,7.93
2018-03-08T05:37:14.048Z,7.47
2018-03-08T05:39:42.900Z,7.43
2018-03-08T05:42:11.768Z,7.50
2018-03-08T05:44:40.636Z,7.77
2018-03-08T05:47:09.490Z,8.37
2018-03-08T05:49:39.120Z,8.77
2018-03-08T05:52:07.997Z,9.03
2018-03-08T05:54:36.879Z,8.30
2018-03-08T05:57:05.752Z,9.63
2018-03-08T05:59:34.612Z,8.57
2018-03-08T06:02:03.478Z,9.20
2018-03-08T06:04:32.334Z,9.13
2018-03-08T06:07:01.180Z,9.53
2018-03-08T06:09:30.537Z,8.60
2018-03-08T06:11:59.389Z,12.87
2018-03-08T06:14:28.232Z,12.63
2018-03-08T06:16:57.114Z,12.60
2018-03-08T06:19:25.978Z,11.37
2018-03-08T06:21:54.812Z,10.53
2018-03-08T06:24:23.700Z,10.70
2018-03-08T06:26:53.164Z,10.10
2018-03-08T06:29:22.047Z,9.23
2018-03-08T06:31:50.964Z,10.83
2018-03-08T06:34:19.947Z,10.53
2018-03-08T06:36:48.792Z,10.83
2018-03-08T06:39:17.676Z,10.17
2018-03-08T06:41:46.518Z,12.03
2018-03-08T06:44:15.407Z,11.17
2018-03-08T06:46:44.310Z,11.63
2018-03-08T06:49:13.158Z,11.20
2018-03-08T06:51:42.008Z,10.63
2018-03-08T06:54:11.664Z,10.77
2018-03-08T06:56:40.520Z,7.47
2018-03-08T06:59:09.426Z,11.20
2018-03-08T07:01:38.310Z,12.63
2018-03-08T07:04:10.550Z,12.43
2018-03-08T07:06:40.185Z,11.23
2018-03-08T07:09:10.190Z,12.07
2018-03-08T07:11:39.048Z,11.10
2018-03-08T07:14:12.859Z,9.40
2018-03-08T07:16:41.714Z,11.37
2018-03-08T07:19:10.584Z,11.30
2018-03-08T07:21:40.350Z,12.30
2018-03-08T07:24:12.858Z,11.67
2018-03-08T07:26:41.731Z,11.73
2018-03-08T07:29:10.908Z,10.23
2018-03-08T07:34:16.543Z,7.97
2018-03-08T07:36:46.165Z,9.70
2018-03-08T07:39:15.013Z,9.23
2018-03-08T07:41:43.929Z,10.17
2018-03-08T07:44:13.085Z,10.30
2018-03-08T07:46:41.952Z,10.53
2018-03-08T07:49:10.838Z,11.00
2018-03-08T07:51:41.133Z,11.73
2018-03-08T07:56:59.909Z,11.93
2018-03-08T07:59:28.824Z,12.30
2018-03-08T08:01:57.747Z,13.83
2018-03-08T08:04:32.521Z,14.87
2018-03-08T08:07:11.192Z,13.07
2018-03-08T08:09:40.135Z,19.47
2018-03-08T08:12:08.993Z,10.43
2018-03-08T08:14:37.849Z,15.30
2018-03-08T08:17:06.716Z,12.63
2018-03-08T08:19:35.559Z,10.83
2018-03-08T08:22:04.517Z,12.90
2018-03-08T08:24:33.399Z,14.20
2018-03-08T08:27:02.257Z,10.37
2018-03-08T08:29:31.139Z,8.67
2018-03-08T08:31:59.993Z,8.83
2018-03-08T08:34:28.969Z,9.77
2018-03-08T08:36:59.067Z,10.27
2018-03-08T08:39:27.926Z,9.70
2018-03-08T08:41:57.019Z,9.13
2018-03-08T08:44:29.455Z,7.97
2018-03-08T08:46:58.304Z,6.90
2018-03-08T08:49:28.083Z,7.33
2018-03-08T08:51:57.563Z,7.30
2018-03-08T08:54:26.474Z,7.27
2018-03-08T08:56:55.337Z,6.60
2018-03-08T08:59:24.884Z,7.37
2018-03-08T09:01:53.739Z,6.93
2018-03-08T09:04:22.716Z,7.10
2018-03-08T09:06:52.099Z,5.90
2018-03-08T09:09:20.967Z,6.87
2018-03-08T09:11:49.841Z,7.17
2018-03-08T09:14:19.445Z,6.47
2018-03-08T09:16:48.275Z,6.67
2018-03-08T09:19:17.147Z,7.40
2018-03-08T09:21:45.989Z,6.73
2018-03-08T09:24:14.841Z,6.20
2018-03-08T09:26:43.702Z,7.77
2018-03-08T09:29:12.561Z,9.97
2018-03-08T09:31:41.456Z,6.70
2018-03-08T09:34:11.211Z,6.00
2018-03-08T09:36:40.153Z,5.07
2018-03-08T09:39:09.006Z,6.20
2018-03-08T09:41:37.876Z,6.77
2018-03-08T09:44:07.944Z,6.83
2018-03-08T09:46:36.843Z,6.23
2018-03-08T09:49:05.856Z,6.40
2018-03-08T09:51:34.713Z,5.97
2018-03-08T09:54:03.593Z,6.33
2018-03-08T09:56:32.523Z,6.37
2018-03-08T09:59:01.448Z,5.53
2018-03-08T10:01:30.384Z,5.20
2018-03-08T10:04:00.266Z,6.40
2018-03-08T10:06:29.143Z,6.47
2018-03-08T10:08:57.988Z,5.80
2018-03-08T10:11:26.881Z,6.57
2018-03-08T10:13:55.724Z,6.10
2018-03-08T10:16:24.590Z,5.97
2018-03-08T10:18:53.573Z,6.47
2018-03-08T10:21:44.277Z,4.93
2018-03-08T10:23:51.271Z,6.00
2018-03-08T10:26:20.488Z,5.57
2018-03-08T10:28:49.537Z,6.00
2018-03-08T10:31:19.263Z,5.07
2018-03-08T10:33:48.361Z,5.93
2018-03-08T10:36:17.229Z,5.80
2018-03-08T10:38:46.062Z,4.07
2018-03-08T10:41:15.000Z,5.80
2018-03-08T10:43:43.801Z,5.77
2018-03-08T10:46:12.669Z,5.90
2018-03-08T10:51:11.867Z,5.17
2018-03-08T10:53:40.725Z,4.07
2018-03-08T10:56:09.589Z,4.43
2018-03-08T10:58:38.555Z,4.83
2018-03-08T11:01:07.417Z,5.00
2018-03-08T11:03:42.333Z,16.23
2018-03-08T11:06:27.555Z,14.97
2018-03-08T11:08:56.591Z,4.43
2018-03-08T11:11:25.451Z,6.13
2018-03-08T11:13:54.309Z,17.67
2018-03-08T11:16:23.242Z,7.43
2018-03-08T11:18:52.067Z,5.07
2018-03-08T11:21:20.910Z,4.13
2018-03-08T11:23:49.843Z,7.33
2018-03-08T11:26:19.617Z,6.77
2018-03-08T11:28:48.859Z,7.17
2018-03-08T11:31:17.735Z,5.40
2018-03-08T11:33:46.661Z,4.67
2018-03-08T11:36:15.519Z,5.67
2018-03-08T11:38:44.362Z,4.43
2018-03-08T11:41:13.225Z,4.53
2018-03-08T11:43:42.088Z,3.80
2018-03-08T11:46:11.152Z,4.00
2018-03-08T11:48:40.156Z,3.47
2018-03-08T11:51:09.015Z,3.40
2018-03-08T11:53:37.878Z,4.20
2018-03-08T11:56:06.719Z,4.27
2018-03-08T11:58:35.573Z,3.43
2018-03-08T12:01:04.432Z,3.10
2018-03-08T12:03:33.315Z,3.33
2018-03-08T12:06:02.199Z,6.93
2018-03-08T12:08:31.048Z,5.83
2018-03-08T12:10:59.885Z,3.37
2018-03-08T12:13:28.735Z,3.60
2018-03-08T12:15:57.573Z,3.37
2018-03-08T12:18:26.418Z,3.00
2018-03-08T12:23:53.928Z,2.50
2018-03-08T12:26:22.772Z,3.73
2018-03-08T12:28:51.669Z,2.17
2018-03-08T12:31:20.681Z,2.87
2018-03-08T12:33:49.950Z,2.90
2018-03-08T12:36:20.183Z,2.20
2018-03-08T12:38:49.089Z,2.90
2018-03-08T12:41:17.965Z,3.13
2018-03-08T12:43:46.971Z,3.33
2018-03-08T12:46:16.868Z,2.80
2018-03-08T12:48:45.853Z,2.83
2018-03-08T12:51:14.656Z,2.57
2018-03-08T12:53:44.055Z,3.47
2018-03-08T12:56:13.575Z,2.93
2018-03-08T12:58:42.448Z,3.00
2018-03-08T13:01:11.334Z,3.13
2018-03-08T13:03:40.806Z,3.00
2018-03-08T13:06:10.442Z,3.40
2018-03-08T13:08:39.921Z,2.73
2018-03-08T13:11:09.589Z,3.23
2018-03-08T13:13:39.530Z,2.30
2018-03-08T13:16:08.380Z,3.00
2018-03-08T13:18:37.247Z,3.13
2018-03-08T13:21:06.128Z,3.57
2018-03-08T13:23:34.992Z,3.80
2018-03-08T13:26:03.865Z,4.00
2018-03-08T13:28:32.801Z,3.77
2018-03-08T13:31:01.717Z,3.50
2018-03-08T13:33:30.580Z,3.73
2018-03-08T13:35:59.582Z,3.20
2018-03-08T13:38:28.413Z,3.30
2018-03-08T13:40:57.278Z,3.37
2018-03-08T13:43:26.292Z,3.67
2018-03-08T13:45:55.267Z,3.87
2018-03-08T13:48:24.142Z,4.03
2018-03-08T13:50:53.025Z,4.07
2018-03-08T13:53:21.902Z,3.23
2018-03-08T13:55:50.752Z,3.67
2018-03-08T13:58:20.317Z,2.77
2018-03-08T14:00:49.156Z,3.47
2018-03-08T14:03:18.014Z,2.67
2018-03-08T14:05:47.101Z,6.23
2018-03-08T14:08:16.343Z,2.97
2018-03-08T14:10:45.217Z,4.30
2018-03-08T14:13:14.149Z,3.67
2018-03-08T14:15:43.036Z,4.40
2018-03-08T14:18:11.902Z,4.53
2018-03-08T14:20:40.767Z,3.30
2018-03-08T14:23:09.602Z,3.63
2018-03-08T14:25:38.448Z,4.80
2018-03-08T14:28:07.472Z,3.80
2018-03-08T14:30:36.360Z,2.63
2018-03-08T14:33:05.236Z,3.77
2018-03-08T14:35:34.082Z,3.40
2018-03-08T14:38:02.952Z,3.60
2018-03-08T14:40:31.883Z,3.63
2018-03-08T14:43:00.738Z,2.90
2018-03-08T14:45:29.648Z,3.37
2018-03-08T14:47:59.224Z,3.13
2018-03-08T14:50:28.060Z,2.80
2018-03-08T14:52:56.948Z,3.30
2018-03-08T14:55:25.879Z,4.90
2018-03-08T14:57:54.724Z,3.63
2018-03-08T15:00:23.623Z,2.50
2018-03-08T15:02:53.074Z,2.87
2018-03-08T15:05:22.050Z,3.43
2018-03-08T15:07:50.956Z,2.87
2018-03-08T15:10:19.954Z,3.10
2018-03-08T15:12:48.807Z,2.67
2018-03-08T15:15:17.656Z,3.00
2018-03-08T15:17:46.674Z,3.10
2018-03-08T15:20:15.516Z,2.80
2018-03-08T15:22:44.364Z,2.83
2018-03-08T15:25:13.237Z,2.97
2018-03-08T15:27:42.268Z,3.30
2018-03-08T15:30:11.347Z,2.87
2018-03-08T15:32:40.308Z,2.50
2018-03-08T15:35:09.641Z,2.50
2018-03-08T15:37:39.110Z,1.90
2018-03-08T15:40:08.022Z,2.57
2018-03-08T15:42:36.860Z,2.10
2018-03-08T15:45:05.777Z,1.90
2018-03-08T15:47:34.682Z,2.00
2018-03-08T15:50:03.557Z,1.80
2018-03-08T15:52:32.405Z,2.00
2018-03-08T15:55:01.291Z,1.50
2018-03-08T15:57:30.337Z,2.27
2018-03-08T15:59:59.456Z,2.20
2018-03-08T16:02:28.362Z,1.80
2018-03-08T16:04:57.276Z,2.20
2018-03-08T16:07:32.549Z,2.10
2018-03-08T16:10:19.803Z,2.30
2018-03-08T16:12:49.064Z,1.90
2018-03-08T16:15:18.520Z,1.93
2018-03-08T16:17:48.138Z,2.57
2018-03-08T16:20:20.412Z,1.97
2018-03-08T16:22:50.178Z,2.23
2018-03-08T16:25:19.214Z,2.07
2018-03-08T16:27:48.920Z,2.60
2018-03-08T16:30:17.799Z,2.30
2018-03-08T16:32:47.012Z,2.30
2018-03-08T16:35:15.866Z,2.27
2018-03-08T16:37:44.727Z,2.03
2018-03-08T16:40:13.604Z,1.80
2018-03-08T16:42:42.443Z,2.30
2018-03-08T16:45:11.332Z,3.60
2018-03-08T16:47:40.215Z,2.77
2018-03-08T16:50:09.060Z,2.40
2018-03-08T16:52:37.930Z,2.50
2018-03-08T16:55:06.761Z,1.90
2018-03-08T16:57:35.678Z,1.70
2018-03-08T17:00:04.645Z,1.80
2018-03-08T17:02:33.505Z,2.00
2018-03-08T17:05:02.365Z,1.87
2018-03-08T17:07:31.261Z,1.77
2018-03-08T17:10:00.113Z,2.27
2018-03-08T17:12:28.966Z,1.73
2018-03-08T17:14:57.839Z,2.10
2018-03-08T17:17:26.677Z,1.97
2018-03-08T17:19:59.424Z,1.57
2018-03-08T17:22:28.358Z,1.63
2018-03-08T17:24:57.194Z,1.80
2018-03-08T17:27:26.080Z,1.87
2018-03-08T17:29:57.407Z,2.47
2018-03-08T17:32:26.321Z,2.63
2018-03-08T17:34:55.161Z,2.20
2018-03-08T17:37:24.030Z,2.50
2018-03-08T17:39:52.968Z,2.53
2018-03-08T17:42:21.824Z,2.57
2018-03-08T17:44:50.680Z,2.70
2018-03-08T17:47:20.362Z,2.70
2018-03-08T17:49:49.193Z,4.43
2018-03-08T17:52:18.049Z,2.67
2018-03-08T17:54:47.400Z,2.70
2018-03-08T17:57:16.236Z,3.60
2018-03-08T17:59:45.406Z,3.10
2018-03-08T18:02:14.637Z,2.10
2018-03-08T18:04:43.486Z,2.77
2018-03-08T18:07:12.348Z,4.10
2018-03-08T18:09:41.238Z,3.63
2018-03-08T18:12:10.094Z,4.07
2018-03-08T18:14:39.771Z,2.50
2018-03-08T18:17:09.245Z,3.63
2018-03-08T18:19:38.470Z,2.90
2018-03-08T18:22:07.392Z,2.77
2018-03-08T18:24:36.286Z,2.50
2018-03-08T18:27:05.148Z,2.50
2018-03-08T18:29:34.463Z,2.87
2018-03-08T18:32:03.385Z,3.00
2018-03-08T18:34:32.288Z,3.80
2018-03-08T18:37:01.168Z,2.87
2018-03-08T18:39:30.042Z,2.93
2018-03-08T18:41:59.647Z,3.00
2018-03-08T18:44:28.520Z,3.30
2018-03-08T18:46:57.382Z,4.20
2018-03-08T18:49:26.226Z,4.03
2018-03-08T18:51:55.108Z,4.47
2018-03-08T18:54:23.960Z,3.90
2018-03-08T18:56:52.895Z,3.90
2018-03-08T18:59:21.764Z,3.73
2018-03-08T19:01:50.652Z,3.83
2018-03-08T19:04:20.313Z,3.33
2018-03-08T19:06:49.176Z,3.60
2018-03-08T19:09:18.020Z,4.00
2018-03-08T19:11:47.344Z,4.17
2018-03-08T19:14:16.204Z,3.97
2018-03-08T19:16:45.079Z,3.57
2018-03-08T19:19:14.168Z,3.73
2018-03-08T19:21:43.023Z,3.70
2018-03-08T19:24:11.872Z,3.57
2018-03-08T19:26:40.747Z,3.70
2018-03-08T19:29:09.591Z,3.30
2018-03-08T19:31:38.936Z,2.90
2018-03-08T19:34:07.843Z,3.20
2018-03-08T19:36:36.754Z,2.63
2018-03-08T19:39:05.626Z,3.47
2018-03-08T19:41:34.472Z,3.27
2018-03-08T19:44:03.370Z,3.60
2018-03-08T19:46:32.544Z,3.47
2018-03-08T19:49:01.381Z,3.47
2018-03-08T19:51:30.221Z,3.17
2018-03-08T19:53:59.720Z,3.40
2018-03-08T19:56:28.739Z,3.10
2018-03-08T19:58:57.689Z,3.03
2018-03-08T20:01:26.659Z,2.60
2018-03-08T20:03:55.511Z,2.87
2018-03-08T20:06:24.364Z,2.27
2018-03-08T20:08:53.236Z,2.13
2018-03-08T20:11:22.080Z,2.60
2018-03-08T20:13:51.553Z,2.73
2018-03-08T20:16:20.446Z,2.87
2018-03-08T20:18:49.330Z,2.83
2018-03-08T20:21:18.168Z,2.10
2018-03-08T20:23:47.137Z,3.53
2018-03-08T20:26:15.979Z,2.60
2018-03-08T20:28:44.829Z,2.80
2018-03-08T20:31:14.411Z,2.77
2018-03-08T20:33:43.297Z,2.80
2018-03-08T20:36:12.167Z,2.30
2018-03-08T20:38:42.139Z,2.30
2018-03-08T20:41:10.984Z,2.50
2018-03-08T20:43:40.059Z,6.20
2018-03-08T20:46:08.966Z,4.00
2018-03-08T20:48:40.095Z,2.83
2018-03-08T20:51:09.030Z,2.43
2018-03-08T20:53:38.535Z,2.90
2018-03-08T20:56:07.367Z,2.87
2018-03-08T20:58:36.250Z,2.53
2018-03-08T21:01:05.105Z,2.97
2018-03-08T21:03:33.937Z,2.60
2018-03-08T21:06:02.849Z,2.30
2018-03-08T21:08:31.689Z,2.60
2018-03-08T21:11:00.551Z,3.10
2018-03-08T21:13:29.485Z,3.00
2018-03-08T21:15:58.344Z,3.07
2018-03-08T21:18:27.196Z,2.50
2018-03-08T21:20:56.106Z,3.20
2018-03-08T21:23:24.951Z,3.13
2018-03-08T21:25:54.544Z,2.50
2018-03-08T21:28:23.421Z,2.70
2018-03-08T21:30:52.745Z,2.30
2018-03-08T21:33:21.626Z,3.00
2018-03-08T21:35:51.198Z,2.80
2018-03-08T21:38:20.817Z,3.40
2018-03-08T21:40:49.853Z,2.77
2018-03-08T21:51:16.232Z,2.87
2018-03-08T21:53:45.065Z,3.10
2018-03-08T21:56:19.794Z,2.40
2018-03-08T21:58:52.713Z,2.60
2018-03-08T22:01:21.575Z,3.03
2018-03-08T22:03:50.483Z,2.80
2018-03-08T22:06:24.229Z,2.83
2018-03-08T22:08:56.550Z,3.30
2018-03-08T22:11:26.509Z,2.70
2018-03-08T22:13:55.389Z,2.93
2018-03-08T22:16:32.816Z,2.90
2018-03-08T22:19:02.772Z,2.90
2018-03-08T22:26:58.556Z,2.73
2018-03-08T22:29:27.465Z,2.80
2018-03-08T22:32:00.178Z,2.73
2018-03-08T22:34:29.089Z,2.77
2018-03-08T22:36:57.952Z,3.53
2018-03-08T22:39:26.811Z,2.73
2018-03-08T22:41:55.703Z,3.57
2018-03-08T22:44:24.542Z,3.20
2018-03-08T22:46:54.356Z,3.63
2018-03-08T22:49:23.288Z,2.63
2018-03-08T22:51:52.511Z,3.13
2018-03-08T22:54:21.367Z,3.10
2018-03-08T22:56:50.463Z,3.80
2018-03-08T22:59:19.794Z,3.30
2018-03-08T23:02:03.575Z,3.27
2018-03-08T23:04:32.427Z,3.10
2018-03-08T23:07:01.304Z,2.93
2018-03-08T23:09:30.191Z,3.53
2018-03-08T23:11:59.779Z,3.37
2018-03-08T23:14:28.615Z,3.00
2018-03-08T23:16:57.472Z,3.23
2018-03-08T23:19:26.337Z,2.83
2018-03-08T23:21:55.207Z,3.10
2018-03-08T23:24:24.078Z,3.40
2018-03-08T23:26:52.919Z,3.03
2018-03-08T23:29:21.756Z,2.90
2018-03-08T23:31:51.583Z,3.30
2018-03-08T23:34:20.431Z,2.50
2018-03-08T23:36:49.275Z,3.23
2018-03-08T23:39:18.598Z,3.33
2018-03-08T23:41:47.509Z,2.97
2018-03-08T23:44:16.387Z,3.00
2018-03-08T23:46:45.279Z,3.07
2018-03-08T23:49:14.123Z,3.27
2018-03-08T23:51:42.964Z,3.40
2018-03-08T23:54:11.820Z,3.00
2018-03-08T23:56:40.716Z,2.60
2018-03-08T23:59:09.577Z,2.87
